BIRO2: Birch Lake

Data processed at Sat Aug 19 2017 22:19


All information presented herein is the property of the government of the United States of America and may be revised or deleted at any time without prior notice.
Dissemination of this information without the expressed written consent of the Public Affairs Office, Tulsa District U.S. Army Corps of Engineers is strictly prohibited.
These data are gathered electronically and, as presented, have not undergone any form of quality control. These data are not guaranteed to be valid or correct.
Go to home page.
Go to station list.

Downstream station:


Previous Day
Next Day
Current Day
    
SHEF ID:       BIRO2     Birch Lake
STATION TYPE:  RESERVOIR
Normal Pool:  Bottom =   730.00, Top =   750.50

               PRECIP ELEVATION   STORAGE    INFLOW   RELEASE  AIR-TEMP  WIND-DIRWIND-SPEED REL-HUMID SOLAR-RAD   VOLTAGE  BAT-LOAD
                   in        ft     ac-ft       cfs       cfs         F       deg       mph         %      W/m2      volt      volt
              Ccp-Rev   Ccp-Rev   Ccp-Rev  Regi-Rev  Regi-Rev   Ccp-Rev   Ccp-Rev   Ccp-Rev   Ccp-Rev   Ccp-Rev   Ccp-Rev   Ccp-Rev
(US/Central)
08/19 00:00      0.00    751.39     18834      -901      -901     75.25    168.00      1.08     88.72      0.10     12.80     12.30
08/19 01:00      0.00    751.39     18834      -901      -901     74.32    127.00      0.67     86.73      0.11     12.80     12.30
08/19 02:00      0.00    751.39     18834      -901      -901     74.46    232.00      0.29     87.86      0.11     12.80     12.30
08/19 03:00      0.00    751.39     18834      -901      -901     74.73    231.00      0.49     88.40      0.11     12.70     12.30
08/19 04:00      0.00    751.39     18834      -901      -901     74.64    232.00      0.88     88.35      0.11     12.80     12.20
08/19 05:00      0.00    751.39     18834      -901      -901     73.98    223.00      0.43     89.74      0.11     12.70     12.20
08/19 06:00      0.00    751.39     18834      -901      -901     74.16    233.00      1.30     88.36      0.11     12.70     12.20
08/19 07:00      0.00    751.39     18834      -901      -901     73.44    228.00      0.58     88.95      2.19     12.70     12.20
08/19 08:00      0.00    751.38     18824      -901      -901     74.21    212.00      0.99     86.67     91.05     13.60     12.20
08/19 09:00      0.00    751.38     18824      -901      -901     76.57    178.00      2.73     80.69    295.88     13.70     13.10
08/19 10:00      0.00    751.38     18824      -901      -901     81.01    183.00      2.53     72.52    504.18     13.70     13.20
08/19 11:00      0.00    751.38     18824      -901      -901     85.41    206.00      1.43     64.92    685.55     13.90     13.50
08/19 12:00      0.00    751.38     18824      -901      -901     88.18    216.00      1.29     57.82    827.85     13.90     13.60
08/19 13:00      0.00    751.38     18824      -901      -901     89.67    196.00      2.17     55.95    909.04     13.70     13.50
08/19 14:00      0.00    751.37     18814      -901      -901     90.30    182.00      2.78     53.91    929.12     14.30     13.60
08/19 15:00      0.00    751.37     18814      -901      -901     91.47    181.00      3.31     51.30    889.87     14.30     13.30
08/19 16:00      0.00    751.37     18814      -901      -901     92.73    193.00      2.41     49.62    791.02     13.60     13.10
08/19 17:00      0.00    751.37     18814      -901      -901     91.54    182.00      4.54     49.97    630.15     13.90     12.80
08/19 18:00      0.00    751.37     18814      -901      -901     91.38    178.00      4.19     49.85    187.57     14.20     12.90
08/19 19:00      0.00    751.37     18814      -901      -901     89.20    165.00      4.38     57.29    151.04     13.20     12.80
08/19 20:00      0.00    751.36     18805      -901      -901     86.76    162.00      4.06     63.42     30.42     12.90     12.60
08/19 21:00      0.00    751.36     18805      -901      -901     84.16    158.00      4.29     68.11      0.72     12.80     12.40
08/19 22:00      0.00    751.36     18805      ----      ----     83.66    155.00      5.35     68.31      0.10     12.80     12.30
08/19 23:00      ----      ----      ----      ----      ----      ----      ----      ----      ----      ----      ----      ----